sensor_id;sensor_type;location;lat;lon;timestamp;P1;durP1;ratioP1;P2;durP2;ratioP2
4422;SDS011;2224;49.814;8.650;2024-02-21T00:00:26;12.60;;;7.80;;
4422;SDS011;2224;49.814;8.650;2024-02-21T00:02:51;14.73;;;7.97;;
4422;SDS011;2224;49.814;8.650;2024-02-21T00:05:17;14.13;;;8.30;;
4422;SDS011;2224;49.814;8.650;2024-02-21T00:07:42;12.90;;;7.50;;
4422;SDS011;2224;49.814;8.650;2024-02-21T00:10:08;15.83;;;8.97;;
4422;SDS011;2224;49.814;8.650;2024-02-21T00:12:34;14.97;;;8.30;;
4422;SDS011;2224;49.814;8.650;2024-02-21T00:14:59;18.00;;;7.90;;
4422;SDS011;2224;49.814;8.650;2024-02-21T00:17:25;15.37;;;8.20;;
4422;SDS011;2224;49.814;8.650;2024-02-21T00:19:51;20.73;;;9.27;;
4422;SDS011;2224;49.814;8.650;2024-02-21T00:22:16;12.57;;;8.67;;
4422;SDS011;2224;49.814;8.650;2024-02-21T00:24:41;11.37;;;7.70;;
4422;SDS011;2224;49.814;8.650;2024-02-21T00:27:07;12.70;;;6.67;;
4422;SDS011;2224;49.814;8.650;2024-02-21T00:29:32;16.07;;;8.50;;
4422;SDS011;2224;49.814;8.650;2024-02-21T00:31:59;15.70;;;9.93;;
4422;SDS011;2224;49.814;8.650;2024-02-21T00:34:24;18.03;;;9.10;;
4422;SDS011;2224;49.814;8.650;2024-02-21T00:36:49;14.70;;;8.90;;
4422;SDS011;2224;49.814;8.650;2024-02-21T00:39:15;21.00;;;8.23;;
4422;SDS011;2224;49.814;8.650;2024-02-21T00:41:40;14.93;;;8.03;;
4422;SDS011;2224;49.814;8.650;2024-02-21T00:44:05;17.13;;;9.57;;
4422;SDS011;2224;49.814;8.650;2024-02-21T00:46:31;14.37;;;8.40;;
4422;SDS011;2224;49.814;8.650;2024-02-21T00:48:56;17.40;;;8.73;;
4422;SDS011;2224;49.814;8.650;2024-02-21T00:51:21;16.43;;;8.40;;
4422;SDS011;2224;49.814;8.650;2024-02-21T00:53:47;15.53;;;8.30;;
4422;SDS011;2224;49.814;8.650;2024-02-21T00:56:12;20.90;;;8.23;;
4422;SDS011;2224;49.814;8.650;2024-02-21T00:58:37;14.80;;;8.20;;
4422;SDS011;2224;49.814;8.650;2024-02-21T01:01:03;13.83;;;8.30;;
4422;SDS011;2224;49.814;8.650;2024-02-21T01:03:28;11.23;;;7.97;;
4422;SDS011;2224;49.814;8.650;2024-02-21T01:05:53;19.30;;;8.70;;
4422;SDS011;2224;49.814;8.650;2024-02-21T01:08:19;18.27;;;9.17;;
4422;SDS011;2224;49.814;8.650;2024-02-21T01:10:44;15.00;;;8.13;;
4422;SDS011;2224;49.814;8.650;2024-02-21T01:13:09;17.80;;;8.50;;
4422;SDS011;2224;49.814;8.650;2024-02-21T01:15:35;16.63;;;9.53;;
4422;SDS011;2224;49.814;8.650;2024-02-21T01:18:00;19.13;;;8.97;;
4422;SDS011;2224;49.814;8.650;2024-02-21T01:20:26;17.60;;;8.77;;
4422;SDS011;2224;49.814;8.650;2024-02-21T01:22:51;14.27;;;8.97;;
4422;SDS011;2224;49.814;8.650;2024-02-21T01:25:16;12.13;;;8.03;;
4422;SDS011;2224;49.814;8.650;2024-02-21T01:27:42;16.73;;;8.63;;
4422;SDS011;2224;49.814;8.650;2024-02-21T01:30:07;21.73;;;8.80;;
4422;SDS011;2224;49.814;8.650;2024-02-21T01:32:33;13.10;;;8.00;;
4422;SDS011;2224;49.814;8.650;2024-02-21T01:34:59;19.90;;;8.80;;
4422;SDS011;2224;49.814;8.650;2024-02-21T01:37:24;17.03;;;8.10;;
4422;SDS011;2224;49.814;8.650;2024-02-21T01:39:50;17.57;;;9.83;;
4422;SDS011;2224;49.814;8.650;2024-02-21T01:42:15;17.23;;;8.60;;
4422;SDS011;2224;49.814;8.650;2024-02-21T01:44:40;17.37;;;8.50;;
4422;SDS011;2224;49.814;8.650;2024-02-21T01:47:06;19.67;;;9.37;;
4422;SDS011;2224;49.814;8.650;2024-02-21T01:49:32;19.93;;;9.20;;
4422;SDS011;2224;49.814;8.650;2024-02-21T01:51:57;14.40;;;8.50;;
4422;SDS011;2224;49.814;8.650;2024-02-21T01:54:23;14.53;;;9.33;;
4422;SDS011;2224;49.814;8.650;2024-02-21T01:56:48;18.33;;;9.90;;
4422;SDS011;2224;49.814;8.650;2024-02-21T01:59:14;23.20;;;10.17;;
4422;SDS011;2224;49.814;8.650;2024-02-21T02:01:40;13.33;;;9.23;;
4422;SDS011;2224;49.814;8.650;2024-02-21T02:04:06;18.50;;;8.90;;
4422;SDS011;2224;49.814;8.650;2024-02-21T02:06:32;15.90;;;9.10;;
4422;SDS011;2224;49.814;8.650;2024-02-21T02:08:57;15.57;;;8.67;;
4422;SDS011;2224;49.814;8.650;2024-02-21T02:11:22;18.50;;;8.77;;
4422;SDS011;2224;49.814;8.650;2024-02-21T02:13:48;18.77;;;8.40;;
4422;SDS011;2224;49.814;8.650;2024-02-21T02:16:13;18.23;;;9.07;;
4422;SDS011;2224;49.814;8.650;2024-02-21T02:18:38;16.00;;;9.40;;
4422;SDS011;2224;49.814;8.650;2024-02-21T02:21:05;15.57;;;9.23;;
4422;SDS011;2224;49.814;8.650;2024-02-21T02:23:35;12.80;;;8.23;;
4422;SDS011;2224;49.814;8.650;2024-02-21T02:26:01;12.37;;;7.90;;
4422;SDS011;2224;49.814;8.650;2024-02-21T02:28:26;20.20;;;8.20;;
4422;SDS011;2224;49.814;8.650;2024-02-21T02:30:52;17.20;;;7.80;;
4422;SDS011;2224;49.814;8.650;2024-02-21T02:33:17;17.70;;;9.00;;
4422;SDS011;2224;49.814;8.650;2024-02-21T02:35:43;12.10;;;7.50;;
4422;SDS011;2224;49.814;8.650;2024-02-21T02:38:08;16.47;;;9.97;;
4422;SDS011;2224;49.814;8.650;2024-02-21T02:40:34;15.30;;;9.13;;
4422;SDS011;2224;49.814;8.650;2024-02-21T02:43:00;17.20;;;8.43;;
4422;SDS011;2224;49.814;8.650;2024-02-21T02:45:26;15.67;;;9.07;;
4422;SDS011;2224;49.814;8.650;2024-02-21T02:47:55;18.37;;;8.77;;
4422;SDS011;2224;49.814;8.650;2024-02-21T02:50:21;21.07;;;9.37;;
4422;SDS011;2224;49.814;8.650;2024-02-21T02:52:48;23.17;;;10.03;;
4422;SDS011;2224;49.814;8.650;2024-02-21T02:55:13;17.97;;;7.67;;
4422;SDS011;2224;49.814;8.650;2024-02-21T02:57:38;20.67;;;8.57;;
4422;SDS011;2224;49.814;8.650;2024-02-21T03:00:04;11.67;;;8.77;;
4422;SDS011;2224;49.814;8.650;2024-02-21T03:02:31;14.87;;;8.27;;
4422;SDS011;2224;49.814;8.650;2024-02-21T03:04:57;13.53;;;8.33;;
4422;SDS011;2224;49.814;8.650;2024-02-21T03:07:23;16.47;;;8.43;;
4422;SDS011;2224;49.814;8.650;2024-02-21T03:09:49;19.20;;;8.67;;
4422;SDS011;2224;49.814;8.650;2024-02-21T03:12:15;13.07;;;7.23;;
4422;SDS011;2224;49.814;8.650;2024-02-21T03:14:44;9.63;;;8.17;;
4422;SDS011;2224;49.814;8.650;2024-02-21T03:17:09;18.80;;;8.93;;
4422;SDS011;2224;49.814;8.650;2024-02-21T03:19:34;10.50;;;7.63;;
4422;SDS011;2224;49.814;8.650;2024-02-21T03:22:00;13.70;;;7.80;;
4422;SDS011;2224;49.814;8.650;2024-02-21T03:24:25;15.37;;;8.90;;
4422;SDS011;2224;49.814;8.650;2024-02-21T03:26:50;16.43;;;7.97;;
4422;SDS011;2224;49.814;8.650;2024-02-21T03:29:16;12.53;;;8.73;;
4422;SDS011;2224;49.814;8.650;2024-02-21T03:31:42;14.60;;;7.67;;
4422;SDS011;2224;49.814;8.650;2024-02-21T03:34:07;15.93;;;7.63;;
4422;SDS011;2224;49.814;8.650;2024-02-21T03:36:35;20.00;;;8.60;;
4422;SDS011;2224;49.814;8.650;2024-02-21T03:39:00;14.43;;;8.30;;
4422;SDS011;2224;49.814;8.650;2024-02-21T03:41:25;14.10;;;8.13;;
4422;SDS011;2224;49.814;8.650;2024-02-21T03:43:52;16.33;;;8.10;;
4422;SDS011;2224;49.814;8.650;2024-02-21T03:46:17;16.57;;;9.30;;
4422;SDS011;2224;49.814;8.650;2024-02-21T03:48:42;16.97;;;8.73;;
4422;SDS011;2224;49.814;8.650;2024-02-21T03:51:08;22.17;;;8.07;;
4422;SDS011;2224;49.814;8.650;2024-02-21T03:53:33;15.53;;;7.97;;
4422;SDS011;2224;49.814;8.650;2024-02-21T03:56:01;15.00;;;7.40;;
4422;SDS011;2224;49.814;8.650;2024-02-21T03:58:28;17.77;;;7.60;;
4422;SDS011;2224;49.814;8.650;2024-02-21T04:00:54;12.40;;;8.50;;
4422;SDS011;2224;49.814;8.650;2024-02-21T04:03:19;19.33;;;7.97;;
4422;SDS011;2224;49.814;8.650;2024-02-21T04:05:45;13.90;;;7.70;;
4422;SDS011;2224;49.814;8.650;2024-02-21T04:08:10;13.37;;;7.77;;
4422;SDS011;2224;49.814;8.650;2024-02-21T04:10:35;16.80;;;9.03;;
4422;SDS011;2224;49.814;8.650;2024-02-21T04:13:01;13.80;;;8.20;;
4422;SDS011;2224;49.814;8.650;2024-02-21T04:15:26;16.83;;;8.97;;
4422;SDS011;2224;49.814;8.650;2024-02-21T04:17:51;14.63;;;7.47;;
4422;SDS011;2224;49.814;8.650;2024-02-21T04:20:18;19.57;;;8.17;;
4422;SDS011;2224;49.814;8.650;2024-02-21T04:22:43;12.27;;;7.73;;
4422;SDS011;2224;49.814;8.650;2024-02-21T04:25:09;17.97;;;8.57;;
4422;SDS011;2224;49.814;8.650;2024-02-21T04:27:35;15.03;;;7.73;;
4422;SDS011;2224;49.814;8.650;2024-02-21T04:30:01;13.07;;;7.77;;
4422;SDS011;2224;49.814;8.650;2024-02-21T04:32:27;14.30;;;7.30;;
4422;SDS011;2224;49.814;8.650;2024-02-21T04:34:53;13.47;;;8.57;;
4422;SDS011;2224;49.814;8.650;2024-02-21T04:37:18;14.53;;;8.43;;
4422;SDS011;2224;49.814;8.650;2024-02-21T04:39:44;14.83;;;7.50;;
4422;SDS011;2224;49.814;8.650;2024-02-21T04:42:09;19.97;;;9.80;;
4422;SDS011;2224;49.814;8.650;2024-02-21T04:44:34;16.57;;;8.23;;
4422;SDS011;2224;49.814;8.650;2024-02-21T04:47:00;18.13;;;9.90;;
4422;SDS011;2224;49.814;8.650;2024-02-21T04:49:25;18.20;;;8.77;;
4422;SDS011;2224;49.814;8.650;2024-02-21T04:51:51;15.30;;;8.40;;
4422;SDS011;2224;49.814;8.650;2024-02-21T04:54:16;15.63;;;8.53;;
4422;SDS011;2224;49.814;8.650;2024-02-21T04:56:41;17.97;;;8.77;;
4422;SDS011;2224;49.814;8.650;2024-02-21T04:59:07;17.23;;;9.00;;
4422;SDS011;2224;49.814;8.650;2024-02-21T05:01:32;12.47;;;8.67;;
4422;SDS011;2224;49.814;8.650;2024-02-21T05:03:57;15.90;;;8.27;;
4422;SDS011;2224;49.814;8.650;2024-02-21T05:06:23;17.07;;;7.77;;
4422;SDS011;2224;49.814;8.650;2024-02-21T05:08:48;15.40;;;7.90;;
4422;SDS011;2224;49.814;8.650;2024-02-21T05:11:14;15.83;;;7.90;;
4422;SDS011;2224;49.814;8.650;2024-02-21T05:13:39;10.00;;;7.47;;
4422;SDS011;2224;49.814;8.650;2024-02-21T05:16:05;14.03;;;8.30;;
4422;SDS011;2224;49.814;8.650;2024-02-21T05:18:31;11.00;;;7.60;;
4422;SDS011;2224;49.814;8.650;2024-02-21T05:20:56;15.40;;;8.20;;
4422;SDS011;2224;49.814;8.650;2024-02-21T05:23:21;14.47;;;8.17;;
4422;SDS011;2224;49.814;8.650;2024-02-21T05:25:47;17.13;;;8.10;;
4422;SDS011;2224;49.814;8.650;2024-02-21T05:28:12;18.70;;;8.40;;
4422;SDS011;2224;49.814;8.650;2024-02-21T05:30:37;16.00;;;7.80;;
4422;SDS011;2224;49.814;8.650;2024-02-21T05:33:06;17.77;;;7.20;;
4422;SDS011;2224;49.814;8.650;2024-02-21T05:35:32;17.03;;;7.90;;
4422;SDS011;2224;49.814;8.650;2024-02-21T05:37:57;16.33;;;8.40;;
4422;SDS011;2224;49.814;8.650;2024-02-21T05:40:24;12.87;;;8.40;;
4422;SDS011;2224;49.814;8.650;2024-02-21T05:42:50;17.10;;;7.20;;
4422;SDS011;2224;49.814;8.650;2024-02-21T05:45:16;13.00;;;7.60;;
4422;SDS011;2224;49.814;8.650;2024-02-21T05:47:42;16.50;;;7.53;;
4422;SDS011;2224;49.814;8.650;2024-02-21T05:50:07;9.87;;;7.30;;
4422;SDS011;2224;49.814;8.650;2024-02-21T05:52:33;15.63;;;7.50;;
4422;SDS011;2224;49.814;8.650;2024-02-21T05:54:59;17.97;;;8.10;;
4422;SDS011;2224;49.814;8.650;2024-02-21T05:57:24;16.43;;;8.43;;
4422;SDS011;2224;49.814;8.650;2024-02-21T05:59:49;9.60;;;6.90;;
4422;SDS011;2224;49.814;8.650;2024-02-21T06:02:15;13.03;;;7.43;;
4422;SDS011;2224;49.814;8.650;2024-02-21T06:04:40;11.43;;;7.07;;
4422;SDS011;2224;49.814;8.650;2024-02-21T06:07:07;13.57;;;6.90;;
4422;SDS011;2224;49.814;8.650;2024-02-21T06:09:32;17.00;;;8.10;;
4422;SDS011;2224;49.814;8.650;2024-02-21T06:11:58;13.40;;;7.40;;
4422;SDS011;2224;49.814;8.650;2024-02-21T06:14:23;11.30;;;7.40;;
4422;SDS011;2224;49.814;8.650;2024-02-21T06:16:49;15.50;;;8.00;;
4422;SDS011;2224;49.814;8.650;2024-02-21T06:19:14;12.20;;;7.57;;
4422;SDS011;2224;49.814;8.650;2024-02-21T06:21:39;11.80;;;7.27;;
4422;SDS011;2224;49.814;8.650;2024-02-21T06:24:05;11.50;;;7.00;;
4422;SDS011;2224;49.814;8.650;2024-02-21T06:26:30;22.60;;;8.27;;
4422;SDS011;2224;49.814;8.650;2024-02-21T06:28:55;15.07;;;7.30;;
4422;SDS011;2224;49.814;8.650;2024-02-21T06:31:21;16.70;;;7.40;;
4422;SDS011;2224;49.814;8.650;2024-02-21T06:33:46;13.93;;;8.10;;
4422;SDS011;2224;49.814;8.650;2024-02-21T06:36:11;12.80;;;7.83;;
4422;SDS011;2224;49.814;8.650;2024-02-21T06:38:37;12.77;;;7.80;;
4422;SDS011;2224;49.814;8.650;2024-02-21T06:41:02;12.60;;;8.67;;
4422;SDS011;2224;49.814;8.650;2024-02-21T06:43:28;13.00;;;8.10;;
4422;SDS011;2224;49.814;8.650;2024-02-21T06:45:53;13.10;;;8.10;;
4422;SDS011;2224;49.814;8.650;2024-02-21T06:48:20;17.70;;;8.87;;
4422;SDS011;2224;49.814;8.650;2024-02-21T06:50:45;15.20;;;8.20;;
4422;SDS011;2224;49.814;8.650;2024-02-21T06:53:10;17.60;;;8.30;;
4422;SDS011;2224;49.814;8.650;2024-02-21T06:55:36;9.70;;;7.70;;
4422;SDS011;2224;49.814;8.650;2024-02-21T06:58:01;14.60;;;8.20;;
4422;SDS011;2224;49.814;8.650;2024-02-21T07:00:29;12.83;;;7.30;;
4422;SDS011;2224;49.814;8.650;2024-02-21T07:02:54;10.90;;;7.17;;
4422;SDS011;2224;49.814;8.650;2024-02-21T07:05:20;11.97;;;7.13;;
4422;SDS011;2224;49.814;8.650;2024-02-21T07:07:45;19.27;;;8.57;;
4422;SDS011;2224;49.814;8.650;2024-02-21T07:10:11;12.80;;;9.00;;
4422;SDS011;2224;49.814;8.650;2024-02-21T07:12:36;13.07;;;7.53;;
4422;SDS011;2224;49.814;8.650;2024-02-21T07:15:03;11.00;;;7.70;;
4422;SDS011;2224;49.814;8.650;2024-02-21T07:17:29;13.80;;;8.47;;
4422;SDS011;2224;49.814;8.650;2024-02-21T07:19:55;13.63;;;8.67;;
4422;SDS011;2224;49.814;8.650;2024-02-21T07:22:21;17.00;;;9.20;;
4422;SDS011;2224;49.814;8.650;2024-02-21T07:24:47;13.53;;;7.87;;
4422;SDS011;2224;49.814;8.650;2024-02-21T07:27:13;12.10;;;8.23;;
4422;SDS011;2224;49.814;8.650;2024-02-21T07:29:39;20.00;;;9.57;;
4422;SDS011;2224;49.814;8.650;2024-02-21T07:32:05;10.23;;;7.23;;
4422;SDS011;2224;49.814;8.650;2024-02-21T07:34:30;11.97;;;8.43;;
4422;SDS011;2224;49.814;8.650;2024-02-21T07:36:56;13.97;;;8.87;;
4422;SDS011;2224;49.814;8.650;2024-02-21T07:39:21;13.37;;;7.37;;
4422;SDS011;2224;49.814;8.650;2024-02-21T07:41:46;15.63;;;8.73;;
4422;SDS011;2224;49.814;8.650;2024-02-21T07:44:13;17.53;;;9.30;;
4422;SDS011;2224;49.814;8.650;2024-02-21T07:46:38;18.23;;;8.60;;
4422;SDS011;2224;49.814;8.650;2024-02-21T07:49:03;14.93;;;8.60;;
4422;SDS011;2224;49.814;8.650;2024-02-21T07:51:29;17.43;;;7.43;;
4422;SDS011;2224;49.814;8.650;2024-02-21T07:53:54;13.00;;;8.17;;
4422;SDS011;2224;49.814;8.650;2024-02-21T07:56:20;15.10;;;7.97;;
4422;SDS011;2224;49.814;8.650;2024-02-21T07:58:46;14.30;;;8.37;;
4422;SDS011;2224;49.814;8.650;2024-02-21T08:01:11;19.83;;;8.57;;
4422;SDS011;2224;49.814;8.650;2024-02-21T08:03:36;12.37;;;8.60;;
4422;SDS011;2224;49.814;8.650;2024-02-21T08:06:02;15.47;;;8.60;;
4422;SDS011;2224;49.814;8.650;2024-02-21T08:08:28;13.37;;;7.57;;
4422;SDS011;2224;49.814;8.650;2024-02-21T08:10:53;15.87;;;8.10;;
4422;SDS011;2224;49.814;8.650;2024-02-21T08:13:19;12.87;;;9.00;;
4422;SDS011;2224;49.814;8.650;2024-02-21T08:15:44;16.83;;;8.93;;
4422;SDS011;2224;49.814;8.650;2024-02-21T08:18:09;14.13;;;7.30;;
4422;SDS011;2224;49.814;8.650;2024-02-21T08:20:35;9.63;;;7.23;;
4422;SDS011;2224;49.814;8.650;2024-02-21T08:23:00;11.97;;;7.30;;
4422;SDS011;2224;49.814;8.650;2024-02-21T08:25:26;14.73;;;7.93;;
4422;SDS011;2224;49.814;8.650;2024-02-21T08:27:51;18.43;;;8.03;;
4422;SDS011;2224;49.814;8.650;2024-02-21T08:30:18;14.93;;;7.00;;
4422;SDS011;2224;49.814;8.650;2024-02-21T08:32:45;15.53;;;8.50;;
4422;SDS011;2224;49.814;8.650;2024-02-21T08:35:10;14.50;;;8.00;;
4422;SDS011;2224;49.814;8.650;2024-02-21T08:37:35;14.53;;;7.60;;
4422;SDS011;2224;49.814;8.650;2024-02-21T08:40:01;9.70;;;7.43;;
4422;SDS011;2224;49.814;8.650;2024-02-21T08:42:33;16.37;;;8.30;;
4422;SDS011;2224;49.814;8.650;2024-02-21T08:44:58;14.00;;;7.33;;
4422;SDS011;2224;49.814;8.650;2024-02-21T08:47:23;11.43;;;7.43;;
4422;SDS011;2224;49.814;8.650;2024-02-21T08:49:49;11.30;;;7.40;;
4422;SDS011;2224;49.814;8.650;2024-02-21T08:52:14;11.50;;;7.67;;
4422;SDS011;2224;49.814;8.650;2024-02-21T08:54:39;11.57;;;7.17;;
4422;SDS011;2224;49.814;8.650;2024-02-21T08:57:05;10.27;;;6.80;;
4422;SDS011;2224;49.814;8.650;2024-02-21T08:59:30;12.17;;;7.30;;
4422;SDS011;2224;49.814;8.650;2024-02-21T09:01:55;10.27;;;7.33;;
4422;SDS011;2224;49.814;8.650;2024-02-21T09:04:21;14.23;;;7.00;;
4422;SDS011;2224;49.814;8.650;2024-02-21T09:06:46;15.53;;;8.20;;
4422;SDS011;2224;49.814;8.650;2024-02-21T09:09:11;13.27;;;8.10;;
4422;SDS011;2224;49.814;8.650;2024-02-21T09:11:37;10.63;;;7.40;;
4422;SDS011;2224;49.814;8.650;2024-02-21T09:14:02;11.40;;;7.53;;
4422;SDS011;2224;49.814;8.650;2024-02-21T09:16:29;13.30;;;7.50;;
4422;SDS011;2224;49.814;8.650;2024-02-21T09:18:56;12.47;;;7.53;;
4422;SDS011;2224;49.814;8.650;2024-02-21T09:21:22;10.73;;;7.00;;
4422;SDS011;2224;49.814;8.650;2024-02-21T09:23:47;13.40;;;8.27;;
4422;SDS011;2224;49.814;8.650;2024-02-21T09:26:13;18.13;;;8.20;;
4422;SDS011;2224;49.814;8.650;2024-02-21T09:28:41;17.17;;;8.20;;
4422;SDS011;2224;49.814;8.650;2024-02-21T09:31:06;16.77;;;8.37;;
4422;SDS011;2224;49.814;8.650;2024-02-21T09:33:31;12.73;;;7.40;;
4422;SDS011;2224;49.814;8.650;2024-02-21T09:35:57;14.10;;;8.77;;
4422;SDS011;2224;49.814;8.650;2024-02-21T09:38:22;9.90;;;7.70;;
4422;SDS011;2224;49.814;8.650;2024-02-21T09:40:51;16.13;;;8.40;;
4422;SDS011;2224;49.814;8.650;2024-02-21T09:43:20;13.20;;;7.90;;
4422;SDS011;2224;49.814;8.650;2024-02-21T09:45:46;18.50;;;7.80;;
4422;SDS011;2224;49.814;8.650;2024-02-21T09:48:15;12.93;;;8.47;;
4422;SDS011;2224;49.814;8.650;2024-02-21T09:50:44;14.70;;;7.93;;
4422;SDS011;2224;49.814;8.650;2024-02-21T09:53:13;13.00;;;7.83;;
4422;SDS011;2224;49.814;8.650;2024-02-21T09:55:39;10.27;;;7.97;;
4422;SDS011;2224;49.814;8.650;2024-02-21T09:58:05;11.83;;;7.90;;
4422;SDS011;2224;49.814;8.650;2024-02-21T10:00:30;10.10;;;7.60;;
4422;SDS011;2224;49.814;8.650;2024-02-21T10:02:56;9.70;;;6.97;;
4422;SDS011;2224;49.814;8.650;2024-02-21T10:05:21;15.40;;;7.70;;
4422;SDS011;2224;49.814;8.650;2024-02-21T10:07:47;12.97;;;7.50;;
4422;SDS011;2224;49.814;8.650;2024-02-21T10:10:14;11.33;;;7.40;;
4422;SDS011;2224;49.814;8.650;2024-02-21T10:12:51;10.33;;;7.10;;
4422;SDS011;2224;49.814;8.650;2024-02-21T10:15:19;13.50;;;6.60;;
4422;SDS011;2224;49.814;8.650;2024-02-21T10:17:47;13.17;;;7.30;;
4422;SDS011;2224;49.814;8.650;2024-02-21T10:20:13;10.07;;;7.53;;
4422;SDS011;2224;49.814;8.650;2024-02-21T10:22:40;13.00;;;8.10;;
4422;SDS011;2224;49.814;8.650;2024-02-21T10:25:12;11.23;;;7.03;;
4422;SDS011;2224;49.814;8.650;2024-02-21T10:27:40;10.33;;;7.13;;
4422;SDS011;2224;49.814;8.650;2024-02-21T10:30:12;15.87;;;8.17;;
4422;SDS011;2224;49.814;8.650;2024-02-21T10:32:53;9.20;;;7.80;;
4422;SDS011;2224;49.814;8.650;2024-02-21T10:35:52;19.30;;;7.10;;
4422;SDS011;2224;49.814;8.650;2024-02-21T10:38:10;11.17;;;6.50;;
4422;SDS011;2224;49.814;8.650;2024-02-21T10:40:36;15.43;;;8.33;;
4422;SDS011;2224;49.814;8.650;2024-02-21T10:43:01;10.50;;;7.20;;
4422;SDS011;2224;49.814;8.650;2024-02-21T10:45:29;10.17;;;8.20;;
4422;SDS011;2224;49.814;8.650;2024-02-21T10:48:24;14.33;;;7.23;;
4422;SDS011;2224;49.814;8.650;2024-02-21T10:50:57;11.60;;;6.30;;
4422;SDS011;2224;49.814;8.650;2024-02-21T10:58:44;12.67;;;7.20;;
4422;SDS011;2224;49.814;8.650;2024-02-21T11:01:10;16.40;;;7.33;;
4422;SDS011;2224;49.814;8.650;2024-02-21T11:03:39;15.53;;;7.90;;
4422;SDS011;2224;49.814;8.650;2024-02-21T11:06:05;15.63;;;7.10;;
4422;SDS011;2224;49.814;8.650;2024-02-21T11:08:32;11.73;;;6.50;;
4422;SDS011;2224;49.814;8.650;2024-02-21T11:10:58;12.40;;;6.80;;
4422;SDS011;2224;49.814;8.650;2024-02-21T11:13:32;19.87;;;7.27;;
4422;SDS011;2224;49.814;8.650;2024-02-21T11:16:09;16.60;;;7.37;;
4422;SDS011;2224;49.814;8.650;2024-02-21T11:18:38;10.57;;;7.10;;
4422;SDS011;2224;49.814;8.650;2024-02-21T11:21:04;11.20;;;6.73;;
4422;SDS011;2224;49.814;8.650;2024-02-21T11:23:30;14.47;;;6.67;;
4422;SDS011;2224;49.814;8.650;2024-02-21T11:26:08;14.53;;;7.00;;
4422;SDS011;2224;49.814;8.650;2024-02-21T11:28:34;13.20;;;6.07;;
4422;SDS011;2224;49.814;8.650;2024-02-21T11:31:08;9.93;;;6.63;;
4422;SDS011;2224;49.814;8.650;2024-02-21T11:33:34;12.03;;;6.50;;
4422;SDS011;2224;49.814;8.650;2024-02-21T11:35:59;8.53;;;5.80;;
4422;SDS011;2224;49.814;8.650;2024-02-21T11:38:25;14.50;;;6.27;;
4422;SDS011;2224;49.814;8.650;2024-02-21T11:40:50;13.70;;;6.10;;
4422;SDS011;2224;49.814;8.650;2024-02-21T11:43:15;7.77;;;5.33;;
4422;SDS011;2224;49.814;8.650;2024-02-21T11:45:41;12.90;;;6.30;;
4422;SDS011;2224;49.814;8.650;2024-02-21T11:48:07;9.57;;;6.00;;
4422;SDS011;2224;49.814;8.650;2024-02-21T11:50:34;8.20;;;5.77;;
4422;SDS011;2224;49.814;8.650;2024-02-21T11:53:00;9.83;;;5.70;;
4422;SDS011;2224;49.814;8.650;2024-02-21T11:55:25;11.60;;;5.90;;
4422;SDS011;2224;49.814;8.650;2024-02-21T11:57:51;14.20;;;6.27;;
4422;SDS011;2224;49.814;8.650;2024-02-21T12:00:17;9.77;;;5.67;;
4422;SDS011;2224;49.814;8.650;2024-02-21T12:02:45;9.87;;;6.67;;
4422;SDS011;2224;49.814;8.650;2024-02-21T12:05:11;9.40;;;5.80;;
4422;SDS011;2224;49.814;8.650;2024-02-21T12:07:36;11.00;;;5.40;;
4422;SDS011;2224;49.814;8.650;2024-02-21T12:10:06;7.37;;;5.23;;
4422;SDS011;2224;49.814;8.650;2024-02-21T12:12:35;7.37;;;6.33;;
4422;SDS011;2224;49.814;8.650;2024-02-21T12:15:02;12.30;;;5.73;;
4422;SDS011;2224;49.814;8.650;2024-02-21T12:17:29;10.50;;;6.37;;
4422;SDS011;2224;49.814;8.650;2024-02-21T12:19:54;14.20;;;6.20;;
4422;SDS011;2224;49.814;8.650;2024-02-21T12:22:20;12.03;;;5.70;;
4422;SDS011;2224;49.814;8.650;2024-02-21T12:24:45;11.90;;;5.63;;
4422;SDS011;2224;49.814;8.650;2024-02-21T12:27:12;11.13;;;5.10;;
4422;SDS011;2224;49.814;8.650;2024-02-21T12:29:38;7.47;;;4.87;;
4422;SDS011;2224;49.814;8.650;2024-02-21T12:32:03;10.00;;;5.17;;
4422;SDS011;2224;49.814;8.650;2024-02-21T12:34:29;8.30;;;4.20;;
4422;SDS011;2224;49.814;8.650;2024-02-21T12:36:57;9.10;;;4.37;;
4422;SDS011;2224;49.814;8.650;2024-02-21T12:39:23;8.27;;;5.00;;
4422;SDS011;2224;49.814;8.650;2024-02-21T12:41:48;6.47;;;4.00;;
4422;SDS011;2224;49.814;8.650;2024-02-21T12:44:13;9.83;;;4.20;;
4422;SDS011;2224;49.814;8.650;2024-02-21T12:46:39;8.47;;;4.53;;
4422;SDS011;2224;49.814;8.650;2024-02-21T12:49:05;7.73;;;4.50;;
4422;SDS011;2224;49.814;8.650;2024-02-21T12:51:30;8.47;;;3.70;;
4422;SDS011;2224;49.814;8.650;2024-02-21T12:53:56;6.77;;;3.50;;
4422;SDS011;2224;49.814;8.650;2024-02-21T12:56:22;7.10;;;3.90;;
4422;SDS011;2224;49.814;8.650;2024-02-21T12:58:47;12.43;;;4.60;;
4422;SDS011;2224;49.814;8.650;2024-02-21T13:01:12;6.37;;;3.53;;
4422;SDS011;2224;49.814;8.650;2024-02-21T13:03:38;9.33;;;3.90;;
4422;SDS011;2224;49.814;8.650;2024-02-21T13:06:03;10.83;;;3.90;;
4422;SDS011;2224;49.814;8.650;2024-02-21T13:08:29;4.80;;;3.20;;
4422;SDS011;2224;49.814;8.650;2024-02-21T13:10:55;7.27;;;3.70;;
4422;SDS011;2224;49.814;8.650;2024-02-21T13:13:20;10.00;;;3.40;;
4422;SDS011;2224;49.814;8.650;2024-02-21T13:15:45;6.20;;;3.80;;
4422;SDS011;2224;49.814;8.650;2024-02-21T13:18:11;5.97;;;3.53;;
4422;SDS011;2224;49.814;8.650;2024-02-21T13:20:36;7.27;;;3.90;;
4422;SDS011;2224;49.814;8.650;2024-02-21T13:23:01;7.57;;;4.00;;
4422;SDS011;2224;49.814;8.650;2024-02-21T13:25:27;8.13;;;4.03;;
4422;SDS011;2224;49.814;8.650;2024-02-21T13:27:53;7.00;;;4.73;;
4422;SDS011;2224;49.814;8.650;2024-02-21T13:30:18;7.20;;;4.20;;
4422;SDS011;2224;49.814;8.650;2024-02-21T13:32:44;9.07;;;4.87;;
4422;SDS011;2224;49.814;8.650;2024-02-21T13:35:11;12.07;;;4.73;;
4422;SDS011;2224;49.814;8.650;2024-02-21T13:37:37;7.27;;;4.30;;
4422;SDS011;2224;49.814;8.650;2024-02-21T13:40:03;10.53;;;4.47;;
4422;SDS011;2224;49.814;8.650;2024-02-21T13:42:29;9.67;;;4.23;;
4422;SDS011;2224;49.814;8.650;2024-02-21T13:44:55;10.57;;;4.20;;
4422;SDS011;2224;49.814;8.650;2024-02-21T13:47:20;13.93;;;5.83;;
4422;SDS011;2224;49.814;8.650;2024-02-21T13:49:46;6.60;;;4.20;;
4422;SDS011;2224;49.814;8.650;2024-02-21T13:52:12;5.50;;;3.70;;
4422;SDS011;2224;49.814;8.650;2024-02-21T13:54:37;7.47;;;3.90;;
4422;SDS011;2224;49.814;8.650;2024-02-21T13:57:03;6.77;;;3.63;;
4422;SDS011;2224;49.814;8.650;2024-02-21T13:59:28;5.23;;;4.40;;
4422;SDS011;2224;49.814;8.650;2024-02-21T14:01:55;7.93;;;3.77;;
4422;SDS011;2224;49.814;8.650;2024-02-21T14:04:20;6.20;;;3.70;;
4422;SDS011;2224;49.814;8.650;2024-02-21T14:06:46;9.13;;;3.93;;
4422;SDS011;2224;49.814;8.650;2024-02-21T14:09:14;9.37;;;4.37;;
4422;SDS011;2224;49.814;8.650;2024-02-21T14:11:39;7.63;;;3.57;;
4422;SDS011;2224;49.814;8.650;2024-02-21T14:14:06;6.73;;;3.70;;
4422;SDS011;2224;49.814;8.650;2024-02-21T14:16:32;7.53;;;3.70;;
4422;SDS011;2224;49.814;8.650;2024-02-21T14:18:58;7.20;;;3.47;;
4422;SDS011;2224;49.814;8.650;2024-02-21T14:21:23;7.17;;;4.10;;
4422;SDS011;2224;49.814;8.650;2024-02-21T14:23:48;9.20;;;3.83;;
4422;SDS011;2224;49.814;8.650;2024-02-21T14:26:14;8.57;;;3.73;;
4422;SDS011;2224;49.814;8.650;2024-02-21T14:28:40;7.83;;;4.73;;
4422;SDS011;2224;49.814;8.650;2024-02-21T14:31:06;10.77;;;4.57;;
4422;SDS011;2224;49.814;8.650;2024-02-21T14:33:34;5.87;;;3.47;;
4422;SDS011;2224;49.814;8.650;2024-02-21T14:36:00;5.30;;;4.10;;
4422;SDS011;2224;49.814;8.650;2024-02-21T14:38:25;9.23;;;4.50;;
4422;SDS011;2224;49.814;8.650;2024-02-21T14:40:50;5.17;;;4.00;;
4422;SDS011;2224;49.814;8.650;2024-02-21T14:43:16;6.90;;;5.17;;
4422;SDS011;2224;49.814;8.650;2024-02-21T14:45:42;5.50;;;4.00;;
4422;SDS011;2224;49.814;8.650;2024-02-21T14:48:08;6.33;;;4.10;;
4422;SDS011;2224;49.814;8.650;2024-02-21T14:50:33;9.50;;;4.00;;
4422;SDS011;2224;49.814;8.650;2024-02-21T14:52:59;6.00;;;3.73;;
4422;SDS011;2224;49.814;8.650;2024-02-21T14:55:24;7.60;;;4.43;;
4422;SDS011;2224;49.814;8.650;2024-02-21T14:57:50;5.87;;;4.03;;
4422;SDS011;2224;49.814;8.650;2024-02-21T15:00:15;6.67;;;4.10;;
4422;SDS011;2224;49.814;8.650;2024-02-21T15:02:41;10.53;;;4.00;;